sensor_id;sensor_type;location;lat;lon;timestamp;P1;durP1;ratioP1;P2;durP2;ratioP2
51244;SDS011;37840;47.562;18.738;2024-02-16T00:01:22;24.37;;;16.67;;
51244;SDS011;37840;47.562;18.738;2024-02-16T00:03:48;24.37;;;17.73;;
51244;SDS011;37840;47.562;18.738;2024-02-16T00:06:14;26.60;;;19.02;;
51244;SDS011;37840;47.562;18.738;2024-02-16T00:08:39;25.60;;;19.00;;
51244;SDS011;37840;47.562;18.738;2024-02-16T00:11:06;26.55;;;17.98;;
51244;SDS011;37840;47.562;18.738;2024-02-16T00:13:32;23.17;;;17.15;;
51244;SDS011;37840;47.562;18.738;2024-02-16T00:15:58;28.40;;;17.87;;
51244;SDS011;37840;47.562;18.738;2024-02-16T00:18:24;24.67;;;16.58;;
51244;SDS011;37840;47.562;18.738;2024-02-16T00:20:50;21.40;;;16.75;;
51244;SDS011;37840;47.562;18.738;2024-02-16T00:23:16;23.95;;;17.65;;
51244;SDS011;37840;47.562;18.738;2024-02-16T00:25:42;23.60;;;16.67;;
51244;SDS011;37840;47.562;18.738;2024-02-16T00:28:08;23.67;;;16.23;;
51244;SDS011;37840;47.562;18.738;2024-02-16T00:30:34;23.48;;;17.37;;
51244;SDS011;37840;47.562;18.738;2024-02-16T00:33:02;23.70;;;16.85;;
51244;SDS011;37840;47.562;18.738;2024-02-16T00:35:28;24.60;;;17.20;;
51244;SDS011;37840;47.562;18.738;2024-02-16T00:37:55;23.67;;;16.98;;
51244;SDS011;37840;47.562;18.738;2024-02-16T00:40:21;23.40;;;16.00;;
51244;SDS011;37840;47.562;18.738;2024-02-16T00:42:48;27.55;;;16.98;;
51244;SDS011;37840;47.562;18.738;2024-02-16T00:45:14;22.80;;;16.10;;
51244;SDS011;37840;47.562;18.738;2024-02-16T00:47:40;23.52;;;16.67;;
51244;SDS011;37840;47.562;18.738;2024-02-16T00:50:06;21.35;;;16.12;;
51244;SDS011;37840;47.562;18.738;2024-02-16T00:52:34;22.33;;;16.92;;
51244;SDS011;37840;47.562;18.738;2024-02-16T00:55:00;20.85;;;15.50;;
51244;SDS011;37840;47.562;18.738;2024-02-16T00:57:26;22.02;;;15.63;;
51244;SDS011;37840;47.562;18.738;2024-02-16T00:59:52;24.17;;;16.25;;
51244;SDS011;37840;47.562;18.738;2024-02-16T01:02:18;22.35;;;16.08;;
51244;SDS011;37840;47.562;18.738;2024-02-16T01:04:44;21.42;;;15.23;;
51244;SDS011;37840;47.562;18.738;2024-02-16T01:07:12;25.35;;;16.92;;
51244;SDS011;37840;47.562;18.738;2024-02-16T01:09:38;26.10;;;17.20;;
51244;SDS011;37840;47.562;18.738;2024-02-16T01:12:04;23.10;;;15.23;;
51244;SDS011;37840;47.562;18.738;2024-02-16T01:14:30;26.05;;;17.20;;
51244;SDS011;37840;47.562;18.738;2024-02-16T01:16:55;26.55;;;16.70;;
51244;SDS011;37840;47.562;18.738;2024-02-16T01:19:21;24.17;;;16.58;;
51244;SDS011;37840;47.562;18.738;2024-02-16T01:21:47;22.83;;;16.67;;
51244;SDS011;37840;47.562;18.738;2024-02-16T01:24:17;26.47;;;16.27;;
51244;SDS011;37840;47.562;18.738;2024-02-16T01:26:43;21.75;;;15.90;;
51244;SDS011;37840;47.562;18.738;2024-02-16T01:29:09;23.23;;;16.52;;
51244;SDS011;37840;47.562;18.738;2024-02-16T01:31:36;23.33;;;15.15;;
51244;SDS011;37840;47.562;18.738;2024-02-16T01:34:02;24.15;;;16.60;;
51244;SDS011;37840;47.562;18.738;2024-02-16T01:36:28;20.33;;;15.32;;
51244;SDS011;37840;47.562;18.738;2024-02-16T01:38:54;21.75;;;15.70;;
51244;SDS011;37840;47.562;18.738;2024-02-16T01:41:20;21.95;;;15.45;;
51244;SDS011;37840;47.562;18.738;2024-02-16T01:43:46;21.55;;;15.90;;
51244;SDS011;37840;47.562;18.738;2024-02-16T01:46:12;21.67;;;15.30;;
51244;SDS011;37840;47.562;18.738;2024-02-16T01:48:38;23.42;;;15.90;;
51244;SDS011;37840;47.562;18.738;2024-02-16T01:51:07;24.80;;;15.43;;
51244;SDS011;37840;47.562;18.738;2024-02-16T01:53:35;22.27;;;15.55;;
51244;SDS011;37840;47.562;18.738;2024-02-16T01:56:02;22.10;;;15.98;;
51244;SDS011;37840;47.562;18.738;2024-02-16T01:58:28;29.48;;;16.90;;
51244;SDS011;37840;47.562;18.738;2024-02-16T02:00:54;21.15;;;15.07;;
51244;SDS011;37840;47.562;18.738;2024-02-16T02:03:20;24.58;;;16.15;;
51244;SDS011;37840;47.562;18.738;2024-02-16T02:05:48;21.35;;;15.65;;
51244;SDS011;37840;47.562;18.738;2024-02-16T02:08:15;27.73;;;17.17;;
51244;SDS011;37840;47.562;18.738;2024-02-16T02:10:41;22.62;;;15.88;;
51244;SDS011;37840;47.562;18.738;2024-02-16T02:13:08;24.40;;;16.48;;
51244;SDS011;37840;47.562;18.738;2024-02-16T02:15:34;25.85;;;16.48;;
51244;SDS011;37840;47.562;18.738;2024-02-16T02:18:00;24.40;;;16.40;;
51244;SDS011;37840;47.562;18.738;2024-02-16T02:20:26;21.55;;;15.73;;
51244;SDS011;37840;47.562;18.738;2024-02-16T02:22:52;24.70;;;16.52;;
51244;SDS011;37840;47.562;18.738;2024-02-16T02:25:18;23.00;;;15.77;;
51244;SDS011;37840;47.562;18.738;2024-02-16T02:27:44;24.63;;;15.75;;
51244;SDS011;37840;47.562;18.738;2024-02-16T02:30:11;23.83;;;17.10;;
51244;SDS011;37840;47.562;18.738;2024-02-16T02:32:37;23.60;;;16.33;;
51244;SDS011;37840;47.562;18.738;2024-02-16T02:35:03;23.92;;;16.50;;
51244;SDS011;37840;47.562;18.738;2024-02-16T02:37:30;22.85;;;16.48;;
51244;SDS011;37840;47.562;18.738;2024-02-16T02:39:56;24.73;;;17.30;;
51244;SDS011;37840;47.562;18.738;2024-02-16T02:42:22;25.55;;;17.20;;
51244;SDS011;37840;47.562;18.738;2024-02-16T02:44:48;24.35;;;17.35;;
51244;SDS011;37840;47.562;18.738;2024-02-16T02:47:17;23.87;;;16.87;;
51244;SDS011;37840;47.562;18.738;2024-02-16T02:49:43;22.37;;;16.75;;
51244;SDS011;37840;47.562;18.738;2024-02-16T02:52:09;24.42;;;17.55;;
51244;SDS011;37840;47.562;18.738;2024-02-16T02:54:35;25.95;;;16.37;;
51244;SDS011;37840;47.562;18.738;2024-02-16T02:57:02;21.65;;;16.27;;
51244;SDS011;37840;47.562;18.738;2024-02-16T02:59:28;22.65;;;16.27;;
51244;SDS011;37840;47.562;18.738;2024-02-16T03:01:54;22.13;;;16.55;;
51244;SDS011;37840;47.562;18.738;2024-02-16T03:04:20;22.58;;;16.12;;
51244;SDS011;37840;47.562;18.738;2024-02-16T03:06:46;22.48;;;15.88;;
51244;SDS011;37840;47.562;18.738;2024-02-16T03:09:12;23.70;;;16.75;;
51244;SDS011;37840;47.562;18.738;2024-02-16T03:11:38;23.52;;;15.98;;
51244;SDS011;37840;47.562;18.738;2024-02-16T03:14:04;24.17;;;16.50;;
51244;SDS011;37840;47.562;18.738;2024-02-16T03:16:31;24.00;;;16.52;;
51244;SDS011;37840;47.562;18.738;2024-02-16T03:18:57;21.80;;;15.52;;
51244;SDS011;37840;47.562;18.738;2024-02-16T03:21:23;21.70;;;15.07;;
51244;SDS011;37840;47.562;18.738;2024-02-16T03:23:49;21.02;;;15.18;;
51244;SDS011;37840;47.562;18.738;2024-02-16T03:26:19;22.65;;;16.12;;
51244;SDS011;37840;47.562;18.738;2024-02-16T03:28:48;23.40;;;16.00;;
51244;SDS011;37840;47.562;18.738;2024-02-16T03:31:21;22.20;;;14.73;;
51244;SDS011;37840;47.562;18.738;2024-02-16T03:33:49;20.92;;;15.50;;
51244;SDS011;37840;47.562;18.738;2024-02-16T03:36:17;20.05;;;15.10;;
51244;SDS011;37840;47.562;18.738;2024-02-16T03:38:45;21.75;;;14.65;;
51244;SDS011;37840;47.562;18.738;2024-02-16T03:41:17;20.88;;;14.57;;
51244;SDS011;37840;47.562;18.738;2024-02-16T03:43:45;26.10;;;15.43;;
51244;SDS011;37840;47.562;18.738;2024-02-16T03:46:11;22.62;;;16.08;;
51244;SDS011;37840;47.562;18.738;2024-02-16T03:48:36;19.85;;;14.98;;
51244;SDS011;37840;47.562;18.738;2024-02-16T03:51:03;22.27;;;15.25;;
51244;SDS011;37840;47.562;18.738;2024-02-16T03:53:29;19.73;;;14.93;;
51244;SDS011;37840;47.562;18.738;2024-02-16T03:55:55;20.30;;;14.40;;
51244;SDS011;37840;47.562;18.738;2024-02-16T03:58:22;21.35;;;15.13;;
51244;SDS011;37840;47.562;18.738;2024-02-16T04:00:48;20.17;;;14.73;;
51244;SDS011;37840;47.562;18.738;2024-02-16T04:03:14;20.02;;;14.43;;
51244;SDS011;37840;47.562;18.738;2024-02-16T04:05:41;20.02;;;15.18;;
51244;SDS011;37840;47.562;18.738;2024-02-16T04:08:07;22.08;;;14.93;;
51244;SDS011;37840;47.562;18.738;2024-02-16T04:10:33;23.33;;;15.20;;
51244;SDS011;37840;47.562;18.738;2024-02-16T04:13:00;21.55;;;15.10;;
51244;SDS011;37840;47.562;18.738;2024-02-16T04:15:26;20.00;;;14.43;;
51244;SDS011;37840;47.562;18.738;2024-02-16T04:17:54;17.85;;;13.52;;
51244;SDS011;37840;47.562;18.738;2024-02-16T04:20:20;20.08;;;13.85;;
51244;SDS011;37840;47.562;18.738;2024-02-16T04:22:47;19.92;;;14.43;;
51244;SDS011;37840;47.562;18.738;2024-02-16T04:25:13;20.52;;;14.07;;
51244;SDS011;37840;47.562;18.738;2024-02-16T04:27:39;21.83;;;14.68;;
51244;SDS011;37840;47.562;18.738;2024-02-16T04:30:05;19.50;;;13.65;;
51244;SDS011;37840;47.562;18.738;2024-02-16T04:32:31;17.55;;;13.10;;
51244;SDS011;37840;47.562;18.738;2024-02-16T04:34:58;19.60;;;13.57;;
51244;SDS011;37840;47.562;18.738;2024-02-16T04:37:27;19.42;;;13.95;;
51244;SDS011;37840;47.562;18.738;2024-02-16T04:39:53;21.15;;;14.32;;
51244;SDS011;37840;47.562;18.738;2024-02-16T04:42:19;20.48;;;13.23;;
51244;SDS011;37840;47.562;18.738;2024-02-16T04:44:45;22.33;;;15.10;;
51244;SDS011;37840;47.562;18.738;2024-02-16T04:47:10;20.10;;;13.68;;
51244;SDS011;37840;47.562;18.738;2024-02-16T04:49:37;17.27;;;12.65;;
51244;SDS011;37840;47.562;18.738;2024-02-16T04:52:03;19.95;;;13.75;;
51244;SDS011;37840;47.562;18.738;2024-02-16T04:54:29;17.83;;;13.50;;
51244;SDS011;37840;47.562;18.738;2024-02-16T04:56:55;19.65;;;14.02;;
51244;SDS011;37840;47.562;18.738;2024-02-16T04:59:21;18.90;;;14.10;;
51244;SDS011;37840;47.562;18.738;2024-02-16T05:01:47;18.48;;;13.23;;
51244;SDS011;37840;47.562;18.738;2024-02-16T05:04:13;19.00;;;14.02;;
51244;SDS011;37840;47.562;18.738;2024-02-16T05:06:42;22.50;;;13.40;;
51244;SDS011;37840;47.562;18.738;2024-02-16T05:09:12;18.73;;;13.45;;
51244;SDS011;37840;47.562;18.738;2024-02-16T05:11:38;17.55;;;12.52;;
51244;SDS011;37840;47.562;18.738;2024-02-16T05:14:03;18.27;;;12.48;;
51244;SDS011;37840;47.562;18.738;2024-02-16T05:16:29;17.87;;;12.88;;
51244;SDS011;37840;47.562;18.738;2024-02-16T05:18:56;17.30;;;12.25;;
51244;SDS011;37840;47.562;18.738;2024-02-16T05:21:22;16.10;;;11.20;;
51244;SDS011;37840;47.562;18.738;2024-02-16T05:23:48;15.13;;;12.13;;
51244;SDS011;37840;47.562;18.738;2024-02-16T05:26:14;18.92;;;12.82;;
51244;SDS011;37840;47.562;18.738;2024-02-16T05:28:40;20.12;;;13.70;;
51244;SDS011;37840;47.562;18.738;2024-02-16T05:31:13;17.75;;;12.30;;
51244;SDS011;37840;47.562;18.738;2024-02-16T05:33:50;17.55;;;11.55;;
51244;SDS011;37840;47.562;18.738;2024-02-16T05:36:17;16.90;;;12.55;;
51244;SDS011;37840;47.562;18.738;2024-02-16T05:38:49;18.92;;;13.30;;
51244;SDS011;37840;47.562;18.738;2024-02-16T05:41:17;19.85;;;13.68;;
51244;SDS011;37840;47.562;18.738;2024-02-16T05:43:46;17.67;;;13.13;;
51244;SDS011;37840;47.562;18.738;2024-02-16T05:46:12;20.50;;;13.07;;
51244;SDS011;37840;47.562;18.738;2024-02-16T05:48:41;19.80;;;14.02;;
51244;SDS011;37840;47.562;18.738;2024-02-16T05:51:08;20.40;;;13.75;;
51244;SDS011;37840;47.562;18.738;2024-02-16T05:53:34;20.50;;;13.27;;
51244;SDS011;37840;47.562;18.738;2024-02-16T05:56:00;21.87;;;14.68;;
51244;SDS011;37840;47.562;18.738;2024-02-16T05:58:27;26.92;;;17.17;;
51244;SDS011;37840;47.562;18.738;2024-02-16T06:00:54;25.55;;;17.17;;
51244;SDS011;37840;47.562;18.738;2024-02-16T06:03:20;28.30;;;17.80;;
51244;SDS011;37840;47.562;18.738;2024-02-16T06:05:47;28.48;;;18.95;;
51244;SDS011;37840;47.562;18.738;2024-02-16T06:08:13;24.70;;;17.60;;
51244;SDS011;37840;47.562;18.738;2024-02-16T06:10:43;28.87;;;20.05;;
51244;SDS011;37840;47.562;18.738;2024-02-16T06:13:09;31.70;;;19.50;;
51244;SDS011;37840;47.562;18.738;2024-02-16T06:15:35;24.98;;;16.65;;
51244;SDS011;37840;47.562;18.738;2024-02-16T06:18:02;25.23;;;17.00;;
51244;SDS011;37840;47.562;18.738;2024-02-16T06:20:28;25.15;;;16.67;;
51244;SDS011;37840;47.562;18.738;2024-02-16T06:22:55;22.58;;;15.88;;
51244;SDS011;37840;47.562;18.738;2024-02-16T06:25:21;21.33;;;15.52;;
51244;SDS011;37840;47.562;18.738;2024-02-16T06:27:47;21.10;;;15.38;;
51244;SDS011;37840;47.562;18.738;2024-02-16T06:30:13;18.37;;;14.25;;
51244;SDS011;37840;47.562;18.738;2024-02-16T06:32:39;24.83;;;15.73;;
51244;SDS011;37840;47.562;18.738;2024-02-16T06:35:08;19.10;;;14.57;;
51244;SDS011;37840;47.562;18.738;2024-02-16T06:37:34;21.23;;;14.48;;
51244;SDS011;37840;47.562;18.738;2024-02-16T06:40:00;20.40;;;14.25;;
51244;SDS011;37840;47.562;18.738;2024-02-16T06:42:26;19.87;;;14.48;;
51244;SDS011;37840;47.562;18.738;2024-02-16T06:44:52;20.33;;;13.77;;
51244;SDS011;37840;47.562;18.738;2024-02-16T06:47:18;18.27;;;13.07;;
51244;SDS011;37840;47.562;18.738;2024-02-16T06:49:48;17.23;;;13.80;;
51244;SDS011;37840;47.562;18.738;2024-02-16T06:52:14;17.70;;;13.57;;
51244;SDS011;37840;47.562;18.738;2024-02-16T06:54:40;22.70;;;14.27;;
51244;SDS011;37840;47.562;18.738;2024-02-16T06:57:06;20.35;;;13.98;;
51244;SDS011;37840;47.562;18.738;2024-02-16T06:59:32;19.05;;;14.05;;
51244;SDS011;37840;47.562;18.738;2024-02-16T07:01:58;18.75;;;14.65;;
51244;SDS011;37840;47.562;18.738;2024-02-16T07:04:24;20.20;;;15.10;;
51244;SDS011;37840;47.562;18.738;2024-02-16T07:06:50;21.87;;;15.45;;
51244;SDS011;37840;47.562;18.738;2024-02-16T07:09:16;19.77;;;15.48;;
51244;SDS011;37840;47.562;18.738;2024-02-16T07:11:42;22.37;;;15.45;;
51244;SDS011;37840;47.562;18.738;2024-02-16T07:14:08;21.95;;;16.17;;
51244;SDS011;37840;47.562;18.738;2024-02-16T07:16:34;24.45;;;17.60;;
51244;SDS011;37840;47.562;18.738;2024-02-16T07:19:00;21.33;;;16.92;;
51244;SDS011;37840;47.562;18.738;2024-02-16T07:21:26;25.25;;;16.25;;
51244;SDS011;37840;47.562;18.738;2024-02-16T07:23:52;21.50;;;16.23;;
51244;SDS011;37840;47.562;18.738;2024-02-16T07:26:18;21.87;;;14.80;;
51244;SDS011;37840;47.562;18.738;2024-02-16T07:28:44;21.55;;;15.95;;
51244;SDS011;37840;47.562;18.738;2024-02-16T07:31:10;20.73;;;14.90;;
51244;SDS011;37840;47.562;18.738;2024-02-16T07:33:36;17.23;;;15.35;;
51244;SDS011;37840;47.562;18.738;2024-02-16T07:36:02;20.15;;;15.40;;
51244;SDS011;37840;47.562;18.738;2024-02-16T07:38:29;24.12;;;16.23;;
51244;SDS011;37840;47.562;18.738;2024-02-16T07:40:55;24.73;;;16.30;;
51244;SDS011;37840;47.562;18.738;2024-02-16T07:43:21;18.80;;;15.13;;
51244;SDS011;37840;47.562;18.738;2024-02-16T07:45:49;20.17;;;15.13;;
51244;SDS011;37840;47.562;18.738;2024-02-16T07:48:19;18.98;;;14.82;;
51244;SDS011;37840;47.562;18.738;2024-02-16T07:50:47;18.05;;;15.57;;
51244;SDS011;37840;47.562;18.738;2024-02-16T07:53:14;18.25;;;14.80;;
51244;SDS011;37840;47.562;18.738;2024-02-16T07:55:40;19.95;;;16.52;;
51244;SDS011;37840;47.562;18.738;2024-02-16T07:58:05;20.70;;;15.30;;
51244;SDS011;37840;47.562;18.738;2024-02-16T08:00:31;20.65;;;14.70;;
51244;SDS011;37840;47.562;18.738;2024-02-16T08:02:57;16.90;;;14.93;;
51244;SDS011;37840;47.562;18.738;2024-02-16T08:05:24;18.52;;;14.98;;
51244;SDS011;37840;47.562;18.738;2024-02-16T08:07:52;18.90;;;14.43;;
51244;SDS011;37840;47.562;18.738;2024-02-16T08:10:19;19.87;;;14.60;;
51244;SDS011;37840;47.562;18.738;2024-02-16T08:12:48;18.07;;;13.73;;
51244;SDS011;37840;47.562;18.738;2024-02-16T08:15:14;16.67;;;13.48;;
51244;SDS011;37840;47.562;18.738;2024-02-16T08:17:40;19.75;;;14.32;;
51244;SDS011;37840;47.562;18.738;2024-02-16T08:20:07;18.65;;;14.68;;
51244;SDS011;37840;47.562;18.738;2024-02-16T08:22:33;23.65;;;15.27;;
51244;SDS011;37840;47.562;18.738;2024-02-16T08:24:59;18.92;;;13.57;;
51244;SDS011;37840;47.562;18.738;2024-02-16T08:27:26;18.35;;;13.05;;
51244;SDS011;37840;47.562;18.738;2024-02-16T08:29:52;17.00;;;13.77;;
51244;SDS011;37840;47.562;18.738;2024-02-16T08:32:18;18.62;;;13.98;;
51244;SDS011;37840;47.562;18.738;2024-02-16T08:34:46;20.40;;;13.73;;
51244;SDS011;37840;47.562;18.738;2024-02-16T08:37:13;22.65;;;14.82;;
51244;SDS011;37840;47.562;18.738;2024-02-16T08:39:39;20.90;;;14.52;;
51244;SDS011;37840;47.562;18.738;2024-02-16T08:42:06;19.92;;;14.20;;
51244;SDS011;37840;47.562;18.738;2024-02-16T08:44:37;21.25;;;14.32;;
51244;SDS011;37840;47.562;18.738;2024-02-16T08:47:04;19.52;;;14.40;;
51244;SDS011;37840;47.562;18.738;2024-02-16T08:49:30;20.62;;;14.85;;
51244;SDS011;37840;47.562;18.738;2024-02-16T08:51:56;22.05;;;14.40;;
51244;SDS011;37840;47.562;18.738;2024-02-16T08:54:22;19.23;;;13.80;;
51244;SDS011;37840;47.562;18.738;2024-02-16T08:56:48;23.45;;;14.20;;
51244;SDS011;37840;47.562;18.738;2024-02-16T08:59:14;19.35;;;13.48;;
51244;SDS011;37840;47.562;18.738;2024-02-16T09:01:41;21.00;;;13.73;;
51244;SDS011;37840;47.562;18.738;2024-02-16T09:04:08;19.20;;;13.40;;
51244;SDS011;37840;47.562;18.738;2024-02-16T09:06:33;20.02;;;13.82;;
51244;SDS011;37840;47.562;18.738;2024-02-16T09:09:04;18.10;;;13.77;;
51244;SDS011;37840;47.562;18.738;2024-02-16T09:11:30;19.80;;;13.57;;
51244;SDS011;37840;47.562;18.738;2024-02-16T09:13:56;20.05;;;13.82;;
51244;SDS011;37840;47.562;18.738;2024-02-16T09:16:22;18.25;;;13.38;;
51244;SDS011;37840;47.562;18.738;2024-02-16T09:18:47;19.05;;;13.07;;
51244;SDS011;37840;47.562;18.738;2024-02-16T09:21:13;20.23;;;13.40;;
51244;SDS011;37840;47.562;18.738;2024-02-16T09:23:40;20.70;;;13.23;;
51244;SDS011;37840;47.562;18.738;2024-02-16T09:26:06;18.08;;;13.10;;
51244;SDS011;37840;47.562;18.738;2024-02-16T09:28:38;17.23;;;11.88;;
51244;SDS011;37840;47.562;18.738;2024-02-16T09:31:07;19.00;;;12.73;;
51244;SDS011;37840;47.562;18.738;2024-02-16T09:33:36;15.55;;;12.25;;
51244;SDS011;37840;47.562;18.738;2024-02-16T09:36:02;17.80;;;12.07;;
51244;SDS011;37840;47.562;18.738;2024-02-16T09:38:30;15.32;;;11.93;;
51244;SDS011;37840;47.562;18.738;2024-02-16T09:40:57;15.65;;;10.93;;
51244;SDS011;37840;47.562;18.738;2024-02-16T09:43:24;13.27;;;10.52;;
51244;SDS011;37840;47.562;18.738;2024-02-16T09:45:57;13.38;;;10.32;;
51244;SDS011;37840;47.562;18.738;2024-02-16T09:48:25;16.67;;;10.40;;
51244;SDS011;37840;47.562;18.738;2024-02-16T09:50:53;14.80;;;10.90;;
51244;SDS011;37840;47.562;18.738;2024-02-16T09:53:20;18.08;;;10.73;;
51244;SDS011;37840;47.562;18.738;2024-02-16T09:55:50;13.52;;;9.63;;
51244;SDS011;37840;47.562;18.738;2024-02-16T09:58:19;17.45;;;9.90;;
51244;SDS011;37840;47.562;18.738;2024-02-16T10:00:52;12.90;;;9.55;;
51244;SDS011;37840;47.562;18.738;2024-02-16T10:03:23;12.73;;;9.50;;
51244;SDS011;37840;47.562;18.738;2024-02-16T10:05:51;15.15;;;9.98;;
51244;SDS011;37840;47.562;18.738;2024-02-16T10:08:21;14.10;;;9.48;;
51244;SDS011;37840;47.562;18.738;2024-02-16T10:10:46;13.80;;;10.20;;
51244;SDS011;37840;47.562;18.738;2024-02-16T10:13:15;12.77;;;9.35;;
51244;SDS011;37840;47.562;18.738;2024-02-16T10:15:41;12.48;;;9.32;;
51244;SDS011;37840;47.562;18.738;2024-02-16T10:18:07;12.35;;;9.15;;
51244;SDS011;37840;47.562;18.738;2024-02-16T10:20:34;11.77;;;8.98;;
51244;SDS011;37840;47.562;18.738;2024-02-16T10:25:36;12.00;;;9.20;;
51244;SDS011;37840;47.562;18.738;2024-02-16T10:28:04;11.15;;;8.18;;
51244;SDS011;37840;47.562;18.738;2024-02-16T10:30:36;11.07;;;8.80;;
51244;SDS011;37840;47.562;18.738;2024-02-16T10:33:04;10.98;;;8.73;;
51244;SDS011;37840;47.562;18.738;2024-02-16T10:35:31;12.50;;;9.10;;
51244;SDS011;37840;47.562;18.738;2024-02-16T10:38:00;11.25;;;8.23;;
51244;SDS011;37840;47.562;18.738;2024-02-16T10:40:31;11.30;;;8.82;;
51244;SDS011;37840;47.562;18.738;2024-02-16T10:43:00;12.77;;;8.98;;
51244;SDS011;37840;47.562;18.738;2024-02-16T10:45:30;12.93;;;9.32;;
51244;SDS011;37840;47.562;18.738;2024-02-16T10:47:59;14.35;;;9.77;;
51244;SDS011;37840;47.562;18.738;2024-02-16T10:50:25;12.15;;;9.48;;
51244;SDS011;37840;47.562;18.738;2024-02-16T10:52:51;13.85;;;9.68;;
51244;SDS011;37840;47.562;18.738;2024-02-16T10:55:19;13.10;;;9.52;;
51244;SDS011;37840;47.562;18.738;2024-02-16T10:57:46;12.40;;;8.32;;
51244;SDS011;37840;47.562;18.738;2024-02-16T11:00:12;11.07;;;8.68;;
51244;SDS011;37840;47.562;18.738;2024-02-16T11:05:33;13.98;;;8.98;;
51244;SDS011;37840;47.562;18.738;2024-02-16T11:08:12;12.63;;;8.80;;
51244;SDS011;37840;47.562;18.738;2024-02-16T11:10:39;14.95;;;8.80;;
51244;SDS011;37840;47.562;18.738;2024-02-16T11:13:05;13.57;;;8.18;;
51244;SDS011;37840;47.562;18.738;2024-02-16T11:15:32;12.70;;;9.30;;
51244;SDS011;37840;47.562;18.738;2024-02-16T11:18:01;10.48;;;8.82;;
51244;SDS011;37840;47.562;18.738;2024-02-16T11:20:28;9.98;;;8.10;;
51244;SDS011;37840;47.562;18.738;2024-02-16T11:23:04;13.00;;;7.93;;
51244;SDS011;37840;47.562;18.738;2024-02-16T11:25:37;10.05;;;7.30;;
51244;SDS011;37840;47.562;18.738;2024-02-16T11:28:03;10.25;;;7.45;;
51244;SDS011;37840;47.562;18.738;2024-02-16T11:30:33;11.95;;;7.72;;
51244;SDS011;37840;47.562;18.738;2024-02-16T11:33:02;10.82;;;7.55;;
51244;SDS011;37840;47.562;18.738;2024-02-16T11:35:28;8.60;;;6.68;;
51244;SDS011;37840;47.562;18.738;2024-02-16T11:37:55;9.98;;;6.85;;
51244;SDS011;37840;47.562;18.738;2024-02-16T11:40:22;8.35;;;6.28;;
51244;SDS011;37840;47.562;18.738;2024-02-16T11:42:48;8.30;;;6.37;;
51244;SDS011;37840;47.562;18.738;2024-02-16T11:45:14;9.88;;;6.50;;
51244;SDS011;37840;47.562;18.738;2024-02-16T11:47:41;9.48;;;6.45;;
51244;SDS011;37840;47.562;18.738;2024-02-16T11:50:07;8.63;;;6.62;;
51244;SDS011;37840;47.562;18.738;2024-02-16T11:52:38;7.85;;;5.82;;
51244;SDS011;37840;47.562;18.738;2024-02-16T11:55:07;7.68;;;5.45;;
51244;SDS011;37840;47.562;18.738;2024-02-16T11:57:34;7.53;;;5.97;;
51244;SDS011;37840;47.562;18.738;2024-02-16T12:00:01;7.45;;;5.97;;
51244;SDS011;37840;47.562;18.738;2024-02-16T12:02:36;7.50;;;5.22;;
51244;SDS011;37840;47.562;18.738;2024-02-16T12:05:02;7.60;;;5.40;;
51244;SDS011;37840;47.562;18.738;2024-02-16T12:07:30;8.50;;;5.20;;
51244;SDS011;37840;47.562;18.738;2024-02-16T12:10:00;7.18;;;5.22;;
51244;SDS011;37840;47.562;18.738;2024-02-16T12:12:27;7.78;;;5.25;;
51244;SDS011;37840;47.562;18.738;2024-02-16T12:14:54;6.32;;;5.10;;
51244;SDS011;37840;47.562;18.738;2024-02-16T12:17:20;8.32;;;5.18;;
51244;SDS011;37840;47.562;18.738;2024-02-16T12:19:46;10.82;;;5.60;;
51244;SDS011;37840;47.562;18.738;2024-02-16T12:22:16;7.28;;;6.05;;
51244;SDS011;37840;47.562;18.738;2024-02-16T12:24:46;7.37;;;5.30;;
51244;SDS011;37840;47.562;18.738;2024-02-16T12:27:16;6.40;;;5.37;;
51244;SDS011;37840;47.562;18.738;2024-02-16T12:29:42;6.70;;;5.22;;
51244;SDS011;37840;47.562;18.738;2024-02-16T12:32:08;8.00;;;5.40;;
51244;SDS011;37840;47.562;18.738;2024-02-16T12:34:37;7.45;;;5.12;;
51244;SDS011;37840;47.562;18.738;2024-02-16T12:37:06;6.60;;;5.03;;
51244;SDS011;37840;47.562;18.738;2024-02-16T12:39:33;7.20;;;5.78;;
51244;SDS011;37840;47.562;18.738;2024-02-16T12:42:00;7.22;;;5.75;;
51244;SDS011;37840;47.562;18.738;2024-02-16T12:44:26;7.43;;;6.10;;
51244;SDS011;37840;47.562;18.738;2024-02-16T12:46:52;8.68;;;6.32;;
51244;SDS011;37840;47.562;18.738;2024-02-16T12:49:18;8.38;;;6.60;;
51244;SDS011;37840;47.562;18.738;2024-02-16T12:51:48;8.70;;;6.20;;
51244;SDS011;37840;47.562;18.738;2024-02-16T12:54:17;8.60;;;6.32;;
51244;SDS011;37840;47.562;18.738;2024-02-16T12:56:47;9.23;;;6.72;;
51244;SDS011;37840;47.562;18.738;2024-02-16T12:59:15;8.50;;;6.28;;
51244;SDS011;37840;47.562;18.738;2024-02-16T13:01:42;8.38;;;6.18;;
51244;SDS011;37840;47.562;18.738;2024-02-16T13:04:08;7.55;;;6.35;;
51244;SDS011;37840;47.562;18.738;2024-02-16T13:06:34;10.60;;;6.50;;
51244;SDS011;37840;47.562;18.738;2024-02-16T13:09:00;8.30;;;6.07;;
51244;SDS011;37840;47.562;18.738;2024-02-16T13:11:28;11.27;;;6.43;;
51244;SDS011;37840;47.562;18.738;2024-02-16T13:13:54;7.20;;;5.82;;
51244;SDS011;37840;47.562;18.738;2024-02-16T13:16:20;8.73;;;6.57;;
51244;SDS011;37840;47.562;18.738;2024-02-16T13:18:46;7.95;;;6.32;;
51244;SDS011;37840;47.562;18.738;2024-02-16T13:21:12;8.25;;;6.60;;
51244;SDS011;37840;47.562;18.738;2024-02-16T13:23:39;15.93;;;6.45;;
51244;SDS011;37840;47.562;18.738;2024-02-16T13:26:05;8.40;;;5.90;;
51244;SDS011;37840;47.562;18.738;2024-02-16T13:28:32;5.70;;;4.85;;
51244;SDS011;37840;47.562;18.738;2024-02-16T13:30:58;9.63;;;5.68;;
51244;SDS011;37840;47.562;18.738;2024-02-16T13:33:24;9.07;;;6.47;;
51244;SDS011;37840;47.562;18.738;2024-02-16T13:35:50;7.57;;;5.95;;
51244;SDS011;37840;47.562;18.738;2024-02-16T13:38:16;7.15;;;5.72;;
51244;SDS011;37840;47.562;18.738;2024-02-16T13:40:42;7.90;;;5.80;;
51244;SDS011;37840;47.562;18.738;2024-02-16T13:43:08;7.00;;;5.43;;
51244;SDS011;37840;47.562;18.738;2024-02-16T13:45:47;10.13;;;6.20;;
51244;SDS011;37840;47.562;18.738;2024-02-16T13:48:18;7.70;;;6.25;;
51244;SDS011;37840;47.562;18.738;2024-02-16T13:50:47;7.93;;;5.97;;
51244;SDS011;37840;47.562;18.738;2024-02-16T13:53:13;7.82;;;5.78;;
51244;SDS011;37840;47.562;18.738;2024-02-16T13:55:43;9.18;;;5.97;;
51244;SDS011;37840;47.562;18.738;2024-02-16T13:58:12;9.35;;;6.85;;
51244;SDS011;37840;47.562;18.738;2024-02-16T14:00:38;9.15;;;6.10;;
51244;SDS011;37840;47.562;18.738;2024-02-16T14:03:05;9.02;;;6.53;;
51244;SDS011;37840;47.562;18.738;2024-02-16T14:05:35;7.68;;;6.15;;
51244;SDS011;37840;47.562;18.738;2024-02-16T14:08:04;7.93;;;6.35;;
51244;SDS011;37840;47.562;18.738;2024-02-16T14:10:31;8.40;;;6.12;;
51244;SDS011;37840;47.562;18.738;2024-02-16T14:12:58;9.05;;;6.90;;
51244;SDS011;37840;47.562;18.738;2024-02-16T14:15:24;8.73;;;6.78;;
51244;SDS011;37840;47.562;18.738;2024-02-16T14:17:50;7.97;;;5.95;;
51244;SDS011;37840;47.562;18.738;2024-02-16T14:20:16;9.82;;;6.45;;